Flight Track Log - Related Links

Times and Time Zones

All times are in EDT time to prevent confusion due to time zone crossing. See the SKW6382 flight status page for this flight to view local times or setup timezone preferences in your user account.

Time Position Orientation Groundspeed Altitude Reporting Facility
EDT Latitude Longitude Course Direction KTS MPH feet Rate Location/Type
Sun 08:36:15 AM 36.7867 -119.7501 326° Northwest  Level FlightAware Approximate
Sun 08:37:15 AM 36.8853 -119.8026 318° Northwest  Level FlightAware Approximate
Sun 08:38:15 AM 36.9642 -119.8993 323° Northwest  Level FlightAware Approximate
Sun 08:39:15 AM 36.9998 -120.0304 90° East  Level FlightAware Approximate
Sun 08:40:33 AM 37.0000 -119.9333 307° West 284 327 9,800  Level Northern Cal TRACON
Sun 08:41:40 AM 37.0500 -120.0167 293° West 298 343 12,300 1,937 Climbing Northern Cal TRACON
Sun 08:42:40 AM 37.0833 -120.1167 290° West 330 380 13,900 850 Climbing Northern Cal TRACON
Sun 08:43:40 AM 37.1167 -120.2333 293° West 376 433 14,000 56 Climbing Northern Cal TRACON
Sun 08:44:28 AM 37.1500 -120.3333 295° West 381 438 14,000  Level Northern Cal TRACON
Sun 08:45:28 AM 37.2000 -120.4667 290° West 407 468 14,000  Level Northern Cal TRACON
Sun 08:46:28 AM 37.2333 -120.5833 287° West 385 443 14,000  Level Northern Cal TRACON
Sun 08:47:28 AM 37.2667 -120.7167 298° West 385 443 14,000  Level Northern Cal TRACON
Sun 08:48:23 AM 37.3167 -120.8333 290° West 383 441 14,000  Level Northern Cal TRACON
Sun 08:49:23 AM 37.3500 -120.9500 288° West 384 442 14,000  Level Northern Cal TRACON
Sun 08:50:29 AM 37.3833 -121.0833 289° West 383 441 14,000 -419 Level Northern Cal TRACON
Sun 08:52:29 AM 37.4500 -121.3333 279° West 381 438 12,700 -900 Descending Northern Cal TRACON
Sun 08:53:29 AM 37.4667 -121.4667 270° West 372 428 11,300 -950 Descending Northern Cal TRACON
Sun 08:54:29 AM 37.4667 -121.6000 270° West 360 414 10,800 -744 Descending Northern Cal TRACON
Sun 08:55:30 AM 37.4667 -121.7000 270° West 296 341 9,800 -1,339 Descending Northern Cal TRACON
Sun 08:56:30 AM 37.4667 -121.8000 280° West 281 323 8,100 -857 Descending Northern Cal TRACON
Sun 08:57:36 AM 37.4833 -121.9167 282° West 278 320 8,000 -565 Descending Northern Cal TRACON
Sun 08:58:48 AM 37.5000 -122.0167 297° West 258 297 6,800 -1,409 Descending Northern Cal TRACON
Sun 08:59:48 AM 37.5333 -122.1000 284° West 245 282 4,900 -1,750 Descending Northern Cal TRACON
Sun 09:00:48 AM 37.5500 -122.1833 302° West 238 274 3,300 -1,190 Descending Northern Cal TRACON
Sun 09:01:49 AM 37.5833 -122.2500 302° West 191 220 2,500 -787 Descending Northern Cal TRACON

Login

Don't have an account? Register now (free) for customized features, flight alerts, and more!